createdAt,value
2018-04-27T00:01:46.436Z,8.60
2018-04-27T00:04:13.915Z,8.60
2018-04-27T00:06:42.273Z,8.60
2018-04-27T00:09:09.739Z,8.50
2018-04-27T00:11:37.228Z,8.50
2018-04-27T00:14:04.695Z,8.50
2018-04-27T00:16:32.196Z,8.60
2018-04-27T00:18:59.684Z,8.50
2018-04-27T00:24:58.260Z,8.50
2018-04-27T00:27:25.738Z,8.50
2018-04-27T00:29:53.203Z,8.50
2018-04-27T00:32:30.595Z,8.50
2018-04-27T00:34:58.104Z,8.50
2018-04-27T00:37:25.621Z,8.50
2018-04-27T00:39:53.076Z,8.50
2018-04-27T00:42:20.554Z,8.50
2018-04-27T00:44:48.043Z,8.60
2018-04-27T00:47:15.503Z,8.60
2018-04-27T00:49:43.125Z,8.60
2018-04-27T00:52:10.630Z,8.60
2018-04-27T00:54:38.147Z,8.60
2018-04-27T00:57:05.619Z,8.60
2018-04-27T00:59:33.087Z,8.60
2018-04-27T01:02:00.746Z,8.60
2018-04-27T01:04:28.215Z,8.60
2018-04-27T01:06:55.691Z,8.60
2018-04-27T01:09:23.204Z,8.60
2018-04-27T01:11:50.786Z,8.60
2018-04-27T01:14:18.258Z,8.60
2018-04-27T01:16:45.731Z,8.60
2018-04-27T01:19:13.195Z,8.60
2018-04-27T01:21:40.666Z,8.60
2018-04-27T01:24:09.012Z,8.60
2018-04-27T01:26:36.529Z,8.60
2018-04-27T01:29:04.007Z,8.60
2018-04-27T01:31:31.498Z,8.70
2018-04-27T01:33:59.806Z,8.60
2018-04-27T01:36:27.277Z,8.60
2018-04-27T01:38:54.771Z,8.60
2018-04-27T01:41:22.249Z,8.70
2018-04-27T01:43:50.527Z,8.60
2018-04-27T01:46:18.165Z,8.60
2018-04-27T01:48:45.627Z,8.60
2018-04-27T01:51:13.154Z,8.60
2018-04-27T01:53:40.630Z,8.60
2018-04-27T01:56:08.173Z,8.70
2018-04-27T01:58:35.667Z,8.60
2018-04-27T02:01:03.139Z,8.70
2018-04-27T02:03:30.646Z,8.60
2018-04-27T02:05:58.124Z,8.60
2018-04-27T02:08:25.620Z,8.60
2018-04-27T02:10:53.104Z,8.70
2018-04-27T02:13:21.728Z,8.60
2018-04-27T02:15:49.217Z,8.60
2018-04-27T02:18:16.702Z,8.70
2018-04-27T02:20:44.187Z,8.70
2018-04-27T02:23:11.676Z,8.70
2018-04-27T02:25:39.145Z,8.70
2018-04-27T02:28:07.390Z,8.70
2018-04-27T02:30:34.859Z,8.70
2018-04-27T02:33:02.567Z,8.70
2018-04-27T02:35:30.092Z,8.70
2018-04-27T02:37:57.567Z,8.60
2018-04-27T02:40:25.042Z,8.60
2018-04-27T02:42:57.631Z,8.60
2018-04-27T02:45:25.095Z,8.60
2018-04-27T02:47:52.607Z,8.60
2018-04-27T02:50:20.075Z,8.60
2018-04-27T02:52:47.770Z,8.60
2018-04-27T02:55:15.286Z,8.60
2018-04-27T02:57:42.798Z,8.60
2018-04-27T03:00:10.303Z,8.60
2018-04-27T03:02:38.559Z,8.70
2018-04-27T03:05:06.736Z,8.60
2018-04-27T03:07:34.583Z,8.70
2018-04-27T03:10:02.075Z,8.60
2018-04-27T03:12:29.583Z,8.60
2018-04-27T03:14:57.079Z,8.70
2018-04-27T03:17:24.597Z,8.70
2018-04-27T03:19:52.068Z,8.70
2018-04-27T03:22:19.696Z,8.70
2018-04-27T03:24:47.181Z,8.70
2018-04-27T03:27:14.655Z,8.70
2018-04-27T03:29:42.167Z,8.70
2018-04-27T03:32:09.643Z,8.80
2018-04-27T03:34:37.131Z,8.70
2018-04-27T03:37:04.648Z,8.80
2018-04-27T03:39:32.643Z,8.80
2018-04-27T03:42:00.117Z,8.80
2018-04-27T03:44:27.637Z,8.80
2018-04-27T03:46:55.119Z,8.80
2018-04-27T03:49:22.621Z,8.90
2018-04-27T03:51:50.147Z,8.90
2018-04-27T03:54:18.351Z,8.90
2018-04-27T03:56:46.059Z,8.90
2018-04-27T03:59:13.552Z,8.90
2018-04-27T04:01:53.139Z,8.90
2018-04-27T04:04:32.317Z,9.00
2018-04-27T04:06:59.791Z,8.90
2018-04-27T04:09:28.068Z,8.90
2018-04-27T04:12:00.484Z,8.90
2018-04-27T04:14:27.960Z,8.90
2018-04-27T04:16:55.437Z,8.80
2018-04-27T04:19:22.936Z,8.80
2018-04-27T04:21:50.419Z,8.80
2018-04-27T04:24:18.862Z,8.80
2018-04-27T04:26:46.747Z,8.80
2018-04-27T04:29:14.234Z,8.70
2018-04-27T04:31:41.776Z,8.70
2018-04-27T04:34:09.268Z,8.70
2018-04-27T04:36:36.756Z,8.70
2018-04-27T04:39:05.023Z,8.80
2018-04-27T04:41:33.358Z,8.80
2018-04-27T04:44:00.818Z,8.80
2018-04-27T04:46:28.282Z,8.80
2018-04-27T04:48:55.775Z,8.90
2018-04-27T04:51:23.254Z,8.90
2018-04-27T04:53:50.724Z,9.00
2018-04-27T04:56:19.052Z,9.10
2018-04-27T04:58:46.536Z,9.10
2018-04-27T05:01:14.027Z,9.10
2018-04-27T05:03:41.728Z,9.20
2018-04-27T05:06:09.232Z,9.20
2018-04-27T05:08:36.699Z,9.30
2018-04-27T05:11:05.035Z,9.40
2018-04-27T05:13:32.527Z,9.30
2018-04-27T05:16:00.031Z,9.40
2018-04-27T05:21:25.023Z,9.40
2018-04-27T05:23:52.508Z,9.50
2018-04-27T05:26:19.979Z,9.50
2018-04-27T05:28:47.447Z,9.50
2018-04-27T05:31:23.409Z,9.60
2018-04-27T05:33:50.906Z,9.60
2018-04-27T05:36:20.189Z,9.60
2018-04-27T05:38:47.731Z,9.70
2018-04-27T05:41:16.017Z,9.80
2018-04-27T05:43:43.511Z,9.70
2018-04-27T05:46:11.003Z,9.80
2018-04-27T05:48:39.998Z,9.90
2018-04-27T05:51:08.242Z,10.00
2018-04-27T05:56:00.084Z,10.00
2018-04-27T05:58:33.384Z,10.00
2018-04-27T06:01:00.875Z,10.10
2018-04-27T06:03:40.741Z,10.10
2018-04-27T06:06:08.270Z,10.20
2018-04-27T06:08:35.975Z,10.30
2018-04-27T06:11:03.532Z,10.40
2018-04-27T06:13:36.247Z,10.40
2018-04-27T06:16:03.836Z,10.50
2018-04-27T06:18:31.435Z,10.50
2018-04-27T06:20:59.018Z,10.60
2018-04-27T06:23:26.687Z,10.70
2018-04-27T06:25:58.121Z,10.70
2018-04-27T06:28:25.882Z,10.80
2018-04-27T06:33:26.223Z,10.90
2018-04-27T06:35:53.711Z,11.10
2018-04-27T06:38:21.184Z,11.00
2018-04-27T06:40:48.686Z,11.10
2018-04-27T06:43:16.169Z,11.20
2018-04-27T06:45:43.688Z,11.20
2018-04-27T06:48:11.167Z,11.30
2018-04-27T06:50:39.590Z,11.30
2018-04-27T06:53:07.089Z,11.30
2018-04-27T06:55:34.574Z,11.40
2018-04-27T06:58:02.081Z,11.40
2018-04-27T07:00:30.324Z,11.30
2018-04-27T07:02:58.722Z,11.30
2018-04-27T07:05:27.021Z,11.50
2018-04-27T07:07:54.566Z,11.40
2018-04-27T07:10:22.823Z,11.50
2018-04-27T07:12:50.300Z,11.50
2018-04-27T07:15:18.574Z,11.50
2018-04-27T07:17:46.056Z,11.50
2018-04-27T07:20:13.540Z,11.50
2018-04-27T07:22:41.006Z,11.50
2018-04-27T07:25:08.498Z,11.60
2018-04-27T07:27:36.316Z,11.60
2018-04-27T07:30:03.888Z,11.70
2018-04-27T07:32:31.420Z,11.70
2018-04-27T07:34:58.936Z,11.90
2018-04-27T07:37:27.211Z,12.10
2018-04-27T07:39:54.712Z,12.10
2018-04-27T07:42:22.224Z,12.20
2018-04-27T07:44:49.756Z,12.30
2018-04-27T07:47:17.263Z,12.40
2018-04-27T07:49:44.734Z,12.50
2018-04-27T07:52:12.232Z,12.50
2018-04-27T07:54:39.847Z,12.70
2018-04-27T07:57:07.365Z,12.90
2018-04-27T07:59:34.893Z,13.00
2018-04-27T08:02:02.404Z,13.10
2018-04-27T08:04:29.875Z,13.10
2018-04-27T08:06:57.389Z,13.10
2018-04-27T08:09:24.874Z,13.20
2018-04-27T08:11:52.348Z,13.30
2018-04-27T08:14:19.839Z,13.40
2018-04-27T08:16:47.579Z,13.50
2018-04-27T08:19:15.360Z,13.50
2018-04-27T08:21:43.706Z,13.50
2018-04-27T08:24:11.212Z,13.50
2018-04-27T08:26:38.689Z,13.50
2018-04-27T08:29:06.444Z,13.60
2018-04-27T08:31:33.918Z,13.70
2018-04-27T08:34:02.263Z,13.80
2018-04-27T08:36:29.751Z,13.80
2018-04-27T08:38:57.274Z,13.80
2018-04-27T08:41:24.819Z,13.90
2018-04-27T08:43:52.405Z,13.90
2018-04-27T08:46:19.903Z,13.90
2018-04-27T08:48:47.370Z,13.70
2018-04-27T08:51:15.647Z,13.80
2018-04-27T08:53:43.155Z,13.80
2018-04-27T08:56:10.715Z,14.00
2018-04-27T08:58:38.208Z,14.00
2018-04-27T09:01:05.723Z,14.10
2018-04-27T09:03:33.214Z,14.10
2018-04-27T09:06:00.717Z,14.10
2018-04-27T09:08:28.246Z,14.20
2018-04-27T09:10:56.507Z,14.40
2018-04-27T09:13:29.129Z,14.40
2018-04-27T09:15:56.612Z,14.50
2018-04-27T09:18:24.111Z,14.60
2018-04-27T09:20:51.663Z,14.60
2018-04-27T09:23:19.524Z,14.60
2018-04-27T09:25:46.991Z,14.60
2018-04-27T09:28:14.733Z,14.60
2018-04-27T09:30:42.224Z,14.60
2018-04-27T09:33:09.731Z,14.60
2018-04-27T09:35:38.570Z,14.70
2018-04-27T09:38:06.801Z,14.70
2018-04-27T09:40:34.296Z,14.70
2018-04-27T09:43:02.608Z,14.80
2018-04-27T09:45:30.110Z,14.70
2018-04-27T09:47:57.595Z,14.70
2018-04-27T09:50:25.853Z,14.70
2018-04-27T09:52:53.367Z,14.70
2018-04-27T09:55:20.851Z,14.80
2018-04-27T09:57:48.321Z,14.90
2018-04-27T10:00:15.823Z,15.00
2018-04-27T10:02:44.091Z,15.20
2018-04-27T10:05:11.578Z,15.20
2018-04-27T10:07:39.063Z,15.30
2018-04-27T10:10:06.583Z,15.30
2018-04-27T10:12:34.100Z,15.30
2018-04-27T10:15:02.409Z,15.30
2018-04-27T10:17:30.700Z,15.30
2018-04-27T10:19:58.238Z,15.20
2018-04-27T10:22:25.734Z,15.30
2018-04-27T10:24:53.206Z,15.40
2018-04-27T10:27:21.063Z,15.40
2018-04-27T10:29:49.019Z,15.50
2018-04-27T10:32:16.591Z,15.50
2018-04-27T10:34:44.099Z,15.60
2018-04-27T10:37:11.577Z,15.60
2018-04-27T10:39:39.079Z,15.60
2018-04-27T10:42:06.569Z,15.50
2018-04-27T10:44:34.103Z,15.50
2018-04-27T10:47:01.575Z,15.60
2018-04-27T10:49:29.820Z,15.70
2018-04-27T10:52:02.299Z,15.60
2018-04-27T10:54:29.871Z,15.80
2018-04-27T10:56:58.094Z,15.90
2018-04-27T10:59:25.577Z,16.00
2018-04-27T11:01:53.210Z,16.10
2018-04-27T11:04:20.689Z,16.20
2018-04-27T11:06:48.187Z,16.30
2018-04-27T11:09:15.696Z,16.40
2018-04-27T11:11:43.170Z,16.50
2018-04-27T11:14:10.713Z,16.70
2018-04-27T11:16:38.188Z,16.80
2018-04-27T11:19:05.658Z,16.80
2018-04-27T11:21:33.163Z,16.90
2018-04-27T11:24:00.668Z,16.80
2018-04-27T11:26:28.166Z,16.60
2018-04-27T11:28:56.211Z,16.50
2018-04-27T11:31:23.917Z,16.60
2018-04-27T11:33:51.414Z,16.70
2018-04-27T11:36:19.011Z,16.70
2018-04-27T11:38:47.779Z,16.50
2018-04-27T11:41:16.034Z,16.40
2018-04-27T11:43:43.906Z,16.30
2018-04-27T11:46:11.434Z,16.40
2018-04-27T11:48:38.966Z,16.40
2018-04-27T11:51:07.504Z,16.60
2018-04-27T11:53:35.031Z,16.50
2018-04-27T11:56:02.534Z,16.70
2018-04-27T11:58:30.032Z,16.90
2018-04-27T12:00:57.528Z,17.00
2018-04-27T12:03:25.058Z,17.00
2018-04-27T12:05:52.567Z,17.00
2018-04-27T12:08:20.056Z,16.80
2018-04-27T12:10:47.808Z,16.70
2018-04-27T12:13:15.321Z,16.60
2018-04-27T12:15:42.806Z,16.40
2018-04-27T12:18:10.343Z,16.30
2018-04-27T12:20:38.048Z,16.10
2018-04-27T12:23:05.756Z,16.10
2018-04-27T12:25:33.283Z,16.00
2018-04-27T12:28:00.779Z,16.00
2018-04-27T12:30:28.275Z,16.00
2018-04-27T12:32:56.607Z,16.20
2018-04-27T12:35:25.519Z,16.30
2018-04-27T12:37:53.667Z,16.30
2018-04-27T12:40:21.157Z,16.30
2018-04-27T12:42:48.693Z,16.30
2018-04-27T12:45:16.240Z,16.20
2018-04-27T12:47:44.008Z,16.20
2018-04-27T12:50:11.516Z,16.10
2018-04-27T12:52:43.935Z,16.20
2018-04-27T12:55:11.439Z,16.20
2018-04-27T12:57:38.943Z,16.10
2018-04-27T13:00:06.456Z,16.10
2018-04-27T13:02:34.867Z,15.90
2018-04-27T13:05:02.425Z,15.90
2018-04-27T13:07:29.919Z,15.80
2018-04-27T13:09:57.402Z,15.90
2018-04-27T13:12:29.948Z,15.90
2018-04-27T13:14:57.447Z,15.90
2018-04-27T13:17:24.965Z,15.90
2018-04-27T13:19:52.456Z,15.90
2018-04-27T13:22:20.067Z,16.00
2018-04-27T13:24:48.455Z,16.00
2018-04-27T13:27:15.975Z,16.10
2018-04-27T13:29:43.708Z,16.10
2018-04-27T13:32:11.480Z,16.10
2018-04-27T13:34:39.004Z,16.10
2018-04-27T13:37:06.499Z,16.10
2018-04-27T13:39:33.992Z,16.10
2018-04-27T13:42:01.485Z,16.20
2018-04-27T13:44:28.984Z,16.20
2018-04-27T13:46:57.221Z,16.10
2018-04-27T13:49:24.702Z,16.00
2018-04-27T13:51:52.710Z,16.00
2018-04-27T13:54:21.555Z,16.00
2018-04-27T13:56:49.071Z,16.00
2018-04-27T13:59:16.561Z,15.90
2018-04-27T14:01:44.027Z,15.90
2018-04-27T14:04:11.740Z,15.90
2018-04-27T14:06:39.248Z,15.80
2018-04-27T14:09:06.745Z,15.80
2018-04-27T14:11:34.231Z,15.80
2018-04-27T14:14:02.202Z,15.80
2018-04-27T14:16:29.633Z,15.80
2018-04-27T14:18:57.195Z,15.80
2018-04-27T14:21:24.690Z,15.90
2018-04-27T14:23:52.330Z,15.90
2018-04-27T14:26:20.531Z,15.90
2018-04-27T14:28:48.039Z,16.00
2018-04-27T14:31:15.534Z,16.00
2018-04-27T14:33:43.810Z,16.10
2018-04-27T14:36:11.260Z,16.20
2018-04-27T14:38:38.760Z,16.30
2018-04-27T14:41:06.349Z,16.50
2018-04-27T14:43:33.834Z,16.50
2018-04-27T14:46:01.332Z,16.60
2018-04-27T14:48:28.858Z,16.60
2018-04-27T14:50:56.328Z,16.50
2018-04-27T14:53:23.820Z,16.40
2018-04-27T14:55:52.343Z,16.20
2018-04-27T14:58:19.830Z,16.20
2018-04-27T15:00:47.299Z,16.10
2018-04-27T15:03:19.933Z,16.00
2018-04-27T15:05:47.474Z,16.00
2018-04-27T15:08:15.703Z,16.10
2018-04-27T15:10:43.219Z,16.40
2018-04-27T15:13:11.731Z,16.80
2018-04-27T15:15:39.544Z,17.40
2018-04-27T15:18:07.278Z,17.90
2018-04-27T15:20:34.782Z,18.30
2018-04-27T15:23:06.234Z,19.00
2018-04-27T15:25:33.998Z,19.50
2018-04-27T15:28:02.568Z,19.90
2018-04-27T15:30:30.345Z,20.20
2018-04-27T15:33:03.224Z,20.40
2018-04-27T15:35:30.792Z,20.50
2018-04-27T15:38:00.355Z,20.70
2018-04-27T15:40:27.881Z,20.90
2018-04-27T15:42:55.551Z,20.80
2018-04-27T15:45:23.052Z,20.80
2018-04-27T15:50:23.465Z,21.20
2018-04-27T15:53:07.263Z,21.20
2018-04-27T15:55:35.645Z,21.20
2018-04-27T16:00:37.050Z,21.00
2018-04-27T16:03:07.403Z,21.00
2018-04-27T16:05:35.868Z,20.50
2018-04-27T16:08:05.768Z,20.50
2018-04-27T16:10:34.659Z,20.10
2018-04-27T16:16:10.148Z,19.00
2018-04-27T16:18:38.997Z,18.80
2018-04-27T16:21:07.192Z,18.70
2018-04-27T16:23:41.239Z,18.50
2018-04-27T16:26:08.836Z,18.20
2018-04-27T16:28:36.663Z,17.90
2018-04-27T16:31:04.133Z,17.70
2018-04-27T16:33:37.933Z,17.40
2018-04-27T16:36:06.935Z,17.20
2018-04-27T16:38:34.450Z,16.90
2018-04-27T16:41:05.882Z,16.70
2018-04-27T16:43:33.403Z,16.60
2018-04-27T16:46:01.095Z,16.50
2018-04-27T16:48:28.602Z,16.40
2018-04-27T16:50:56.091Z,16.30
2018-04-27T16:53:23.804Z,16.20
2018-04-27T16:55:53.507Z,16.20
2018-04-27T16:58:21.252Z,16.10
2018-04-27T17:00:48.730Z,16.00
2018-04-27T17:03:16.227Z,15.90
2018-04-27T17:05:44.383Z,15.70
2018-04-27T17:08:13.548Z,15.40
2018-04-27T17:10:41.612Z,15.40
2018-04-27T17:13:14.557Z,15.20
2018-04-27T17:15:43.143Z,15.00
2018-04-27T17:18:11.589Z,14.90
2018-04-27T17:20:39.368Z,14.80
2018-04-27T17:23:07.940Z,14.70
2018-04-27T17:25:35.414Z,14.70
2018-04-27T17:28:03.162Z,14.60
2018-04-27T17:30:31.426Z,14.50
2018-04-27T17:32:59.558Z,14.40
2018-04-27T17:35:28.533Z,14.40
2018-04-27T17:37:57.344Z,14.30
2018-04-27T17:40:25.658Z,14.30
2018-04-27T17:42:53.608Z,14.20
2018-04-27T17:45:22.358Z,14.10
2018-04-27T17:47:51.068Z,14.10
2018-04-27T17:50:20.067Z,14.00
2018-04-27T17:52:47.749Z,14.00
2018-04-27T17:55:16.207Z,14.00
2018-04-27T17:57:43.695Z,13.90
2018-04-27T18:00:11.190Z,13.90
2018-04-27T18:02:38.827Z,13.90
2018-04-27T18:05:06.346Z,13.80
2018-04-27T18:07:33.936Z,13.80
2018-04-27T18:10:03.504Z,13.80
2018-04-27T18:12:32.996Z,13.70
2018-04-27T18:15:01.125Z,13.60
2018-04-27T18:17:29.379Z,13.60
2018-04-27T18:19:57.406Z,13.50
2018-04-27T18:22:25.677Z,13.40
2018-04-27T18:24:55.122Z,13.40
2018-04-27T18:27:24.357Z,13.30
2018-04-27T18:29:53.474Z,13.20
2018-04-27T18:34:54.014Z,13.10
2018-04-27T18:37:22.724Z,13.00
2018-04-27T18:39:50.903Z,12.90
2018-04-27T18:42:18.786Z,12.80
2018-04-27T18:44:47.035Z,12.80
2018-04-27T18:47:14.524Z,12.80
2018-04-27T18:49:42.407Z,12.70
2018-04-27T18:52:11.807Z,12.70
2018-04-27T18:54:40.223Z,12.60
2018-04-27T18:57:08.470Z,12.60
2018-04-27T19:02:27.213Z,12.60
2018-04-27T19:07:32.158Z,12.50
2018-04-27T19:09:59.620Z,12.50
2018-04-27T19:12:27.091Z,12.50
2018-04-27T19:14:54.620Z,12.50
2018-04-27T19:17:22.195Z,12.50
2018-04-27T19:19:49.722Z,12.50
2018-04-27T19:22:19.172Z,12.50
2018-04-27T19:24:47.089Z,12.40
2018-04-27T19:27:15.494Z,12.40
2018-04-27T19:29:43.113Z,12.40
2018-04-27T19:32:10.910Z,12.40
2018-04-27T19:34:38.699Z,12.30
2018-04-27T19:37:06.426Z,12.30
2018-04-27T19:39:34.149Z,12.30
2018-04-27T19:42:02.437Z,12.20
2018-04-27T19:44:32.641Z,12.20
2018-04-27T19:47:03.677Z,12.20
2018-04-27T19:52:04.503Z,12.20
2018-04-27T19:54:31.967Z,12.20
2018-04-27T19:57:00.148Z,12.20
2018-04-27T19:59:28.159Z,12.20
2018-04-27T20:01:55.699Z,12.10
2018-04-27T20:04:23.245Z,12.10
2018-04-27T20:06:51.502Z,12.10
2018-04-27T20:09:18.983Z,12.10
2018-04-27T20:11:48.029Z,12.10
2018-04-27T20:14:27.275Z,12.00
2018-04-27T20:16:54.844Z,12.00
2018-04-27T20:19:22.331Z,11.90
2018-04-27T20:21:51.379Z,11.80
2018-04-27T20:24:18.882Z,11.70
2018-04-27T20:26:47.354Z,11.70
2018-04-27T20:29:14.870Z,11.70
2018-04-27T20:31:42.383Z,11.70
2018-04-27T20:34:10.640Z,11.60
2018-04-27T20:36:39.069Z,11.60
2018-04-27T20:39:06.672Z,11.50
2018-04-27T20:41:34.181Z,11.50
2018-04-27T20:44:16.632Z,11.50
2018-04-27T20:46:44.139Z,11.50
2018-04-27T20:49:11.615Z,11.50
2018-04-27T20:51:40.042Z,11.50
2018-04-27T20:54:09.427Z,11.50
2018-04-27T20:56:49.261Z,11.50
2018-04-27T20:59:20.684Z,11.50
2018-04-27T21:01:48.380Z,11.50
2018-04-27T21:04:16.688Z,11.50
2018-04-27T21:06:44.247Z,11.50
2018-04-27T21:09:12.509Z,11.40
2018-04-27T21:11:40.039Z,11.50
2018-04-27T21:14:07.604Z,11.50
2018-04-27T21:16:35.742Z,11.50
2018-04-27T21:19:04.881Z,11.50
2018-04-27T21:21:32.423Z,11.50
2018-04-27T21:23:59.895Z,11.60
2018-04-27T21:26:29.196Z,11.60
2018-04-27T21:28:56.687Z,11.60
2018-04-27T21:31:24.212Z,11.60
2018-04-27T21:33:59.870Z,11.60
2018-04-27T21:36:29.979Z,11.60
2018-04-27T21:39:09.480Z,11.60
2018-04-27T21:41:47.607Z,11.60
2018-04-27T21:44:15.091Z,11.60
2018-04-27T21:46:51.867Z,11.60
2018-04-27T21:49:19.391Z,11.50
2018-04-27T21:51:56.579Z,11.50
2018-04-27T21:54:27.663Z,11.30
2018-04-27T21:57:10.088Z,11.30
2018-04-27T21:59:39.927Z,11.20
2018-04-27T22:02:08.430Z,11.00
2018-04-27T22:04:36.188Z,10.90
2018-04-27T22:07:06.464Z,10.70
2018-04-27T22:09:45.880Z,10.70
2018-04-27T22:12:13.378Z,10.60
2018-04-27T22:14:40.893Z,10.50
2018-04-27T22:17:11.092Z,10.50
2018-04-27T22:19:38.572Z,10.40
2018-04-27T22:22:06.067Z,10.50
2018-04-27T22:24:50.129Z,10.50
2018-04-27T22:27:18.383Z,10.50
2018-04-27T22:29:46.671Z,10.40
2018-04-27T22:32:20.635Z,10.50
2018-04-27T22:34:48.128Z,10.50
2018-04-27T22:37:16.336Z,10.50
2018-04-27T22:42:48.096Z,10.70
2018-04-27T22:45:18.849Z,10.70
2018-04-27T22:47:51.519Z,10.70
2018-04-27T22:50:22.013Z,10.80
2018-04-27T22:52:51.051Z,10.80
2018-04-27T22:55:21.723Z,10.80
2018-04-27T22:58:13.132Z,10.80
2018-04-27T23:00:41.460Z,10.70
2018-04-27T23:03:26.616Z,10.80
2018-04-27T23:05:54.952Z,10.80
2018-04-27T23:08:22.452Z,10.80
2018-04-27T23:10:56.812Z,10.80
2018-04-27T23:13:31.594Z,10.80
2018-04-27T23:16:01.024Z,10.80
2018-04-27T23:18:44.181Z,10.80
2018-04-27T23:21:13.072Z,10.80
2018-04-27T23:23:40.539Z,10.80
2018-04-27T23:26:08.042Z,10.70
2018-04-27T23:28:35.512Z,10.70
2018-04-27T23:31:03.006Z,10.70
2018-04-27T23:33:30.503Z,10.70
2018-04-27T23:35:58.007Z,10.70
2018-04-27T23:38:28.020Z,10.70
2018-04-27T23:40:56.091Z,10.70
2018-04-27T23:43:24.272Z,10.70
2018-04-27T23:45:52.235Z,10.70
2018-04-27T23:48:19.771Z,10.70
2018-04-27T23:50:48.021Z,10.70
2018-04-27T23:53:21.441Z,10.60
2018-04-27T23:55:48.987Z,10.60
2018-04-27T23:58:17.974Z,10.60
